Rumpus Ridge, South Dakota
Current Conditions -  °F | °C
As of 8:56 PM on Sunday 23 Nov 2014 (Local Time) from KFSD Reporting Station
Overcast Overcast  
Wind Chill: -9°   Ceiling: 2200
Heat Index: -2°   Visibility: 10mi
Dew Point: -7°   Wind: 20mph
Humidity: 72%   Direction: 330°NNW
Pressure: 29.55"   Gusts: 31mph
Location:  43.5855°N, 97.3085°W
Report Text: KFSD 240256Z 33017G27KT 10SM BKN022 OVC031 M02/M07 A2955 RMK AO2 PK WND 32033/0234 SLP019 T10221067 50004
Loading
Personal Weather Stations






























Interactive Weather Map New forecast layout! Learn more

10-Day Weather Forecast

Advertisements
Track Severe Weather on mobile